sensor_id;sensor_type;location;lat;lon;timestamp;P1;durP1;ratioP1;P2;durP2;ratioP2
15895;SDS011;33591;52.282;8.036;2022-07-23T00:00:39;7.57;;;6.88;;
15895;SDS011;33591;52.282;8.036;2022-07-23T00:01:40;9.07;;;6.47;;
15895;SDS011;33591;52.282;8.036;2022-07-23T00:02:41;10.50;;;9.43;;
15895;SDS011;33591;52.282;8.036;2022-07-23T00:03:41;7.65;;;6.82;;
15895;SDS011;33591;52.282;8.036;2022-07-23T00:04:42;8.23;;;7.43;;
15895;SDS011;33591;52.282;8.036;2022-07-23T00:05:42;7.68;;;6.97;;
15895;SDS011;33591;52.282;8.036;2022-07-23T00:06:42;7.93;;;7.13;;
15895;SDS011;33591;52.282;8.036;2022-07-23T00:07:43;8.00;;;7.22;;
15895;SDS011;33591;52.282;8.036;2022-07-23T00:08:43;8.10;;;7.30;;
15895;SDS011;33591;52.282;8.036;2022-07-23T00:09:44;7.00;;;6.40;;
15895;SDS011;33591;52.282;8.036;2022-07-23T00:10:44;7.32;;;6.60;;
15895;SDS011;33591;52.282;8.036;2022-07-23T00:11:44;10.63;;;7.13;;
15895;SDS011;33591;52.282;8.036;2022-07-23T00:12:44;7.90;;;7.18;;
15895;SDS011;33591;52.282;8.036;2022-07-23T00:13:45;8.05;;;7.32;;
15895;SDS011;33591;52.282;8.036;2022-07-23T00:14:45;8.10;;;7.30;;
15895;SDS011;33591;52.282;8.036;2022-07-23T00:15:46;8.88;;;7.90;;
15895;SDS011;33591;52.282;8.036;2022-07-23T00:16:46;8.27;;;7.00;;
15895;SDS011;33591;52.282;8.036;2022-07-23T00:17:47;9.68;;;6.97;;
15895;SDS011;33591;52.282;8.036;2022-07-23T00:18:47;7.40;;;6.75;;
15895;SDS011;33591;52.282;8.036;2022-07-23T00:19:47;7.72;;;6.30;;
15895;SDS011;33591;52.282;8.036;2022-07-23T00:20:48;7.38;;;6.68;;
15895;SDS011;33591;52.282;8.036;2022-07-23T00:21:48;7.70;;;7.07;;
15895;SDS011;33591;52.282;8.036;2022-07-23T00:22:53;7.57;;;6.80;;
15895;SDS011;33591;52.282;8.036;2022-07-23T00:23:53;8.60;;;7.05;;
15895;SDS011;33591;52.282;8.036;2022-07-23T00:24:54;7.50;;;6.70;;
15895;SDS011;33591;52.282;8.036;2022-07-23T00:25:54;9.10;;;7.20;;
15895;SDS011;33591;52.282;8.036;2022-07-23T00:26:55;7.82;;;7.03;;
15895;SDS011;33591;52.282;8.036;2022-07-23T00:27:56;10.60;;;6.80;;
15895;SDS011;33591;52.282;8.036;2022-07-23T00:28:56;9.43;;;6.63;;
15895;SDS011;33591;52.282;8.036;2022-07-23T00:29:56;8.70;;;7.20;;
15895;SDS011;33591;52.282;8.036;2022-07-23T00:30:57;7.75;;;7.07;;
15895;SDS011;33591;52.282;8.036;2022-07-23T00:31:57;11.20;;;6.85;;
15895;SDS011;33591;52.282;8.036;2022-07-23T00:32:59;7.75;;;7.05;;
15895;SDS011;33591;52.282;8.036;2022-07-23T00:34:00;10.15;;;6.93;;
15895;SDS011;33591;52.282;8.036;2022-07-23T00:35:01;7.70;;;6.90;;
15895;SDS011;33591;52.282;8.036;2022-07-23T00:36:01;8.88;;;7.10;;
15895;SDS011;33591;52.282;8.036;2022-07-23T00:37:02;8.65;;;6.47;;
15895;SDS011;33591;52.282;8.036;2022-07-23T00:38:02;11.13;;;6.90;;
15895;SDS011;33591;52.282;8.036;2022-07-23T00:39:03;7.32;;;6.60;;
15895;SDS011;33591;52.282;8.036;2022-07-23T00:40:04;9.32;;;6.88;;
15895;SDS011;33591;52.282;8.036;2022-07-23T00:41:04;9.30;;;7.22;;
15895;SDS011;33591;52.282;8.036;2022-07-23T00:42:04;10.73;;;7.22;;
15895;SDS011;33591;52.282;8.036;2022-07-23T00:43:05;8.90;;;8.10;;
15895;SDS011;33591;52.282;8.036;2022-07-23T00:44:24;10.07;;;7.47;;
15895;SDS011;33591;52.282;8.036;2022-07-23T00:45:25;9.65;;;7.57;;
15895;SDS011;33591;52.282;8.036;2022-07-23T00:46:26;12.48;;;8.30;;
15895;SDS011;33591;52.282;8.036;2022-07-23T00:47:27;8.90;;;7.07;;
15895;SDS011;33591;52.282;8.036;2022-07-23T00:48:27;8.45;;;7.47;;
15895;SDS011;33591;52.282;8.036;2022-07-23T00:49:28;9.07;;;8.20;;
15895;SDS011;33591;52.282;8.036;2022-07-23T00:50:29;9.00;;;8.10;;
15895;SDS011;33591;52.282;8.036;2022-07-23T00:51:30;10.05;;;9.05;;
15895;SDS011;33591;52.282;8.036;2022-07-23T00:52:31;9.27;;;8.32;;
15895;SDS011;33591;52.282;8.036;2022-07-23T00:53:31;10.18;;;9.05;;
15895;SDS011;33591;52.282;8.036;2022-07-23T00:54:32;9.50;;;8.50;;
15895;SDS011;33591;52.282;8.036;2022-07-23T00:55:32;10.68;;;8.38;;
15895;SDS011;33591;52.282;8.036;2022-07-23T00:56:33;11.02;;;8.05;;
15895;SDS011;33591;52.282;8.036;2022-07-23T00:57:34;9.48;;;8.55;;
15895;SDS011;33591;52.282;8.036;2022-07-23T00:58:35;9.23;;;8.30;;
15895;SDS011;33591;52.282;8.036;2022-07-23T00:59:38;11.27;;;9.55;;
15895;SDS011;33591;52.282;8.036;2022-07-23T01:00:38;10.23;;;9.13;;
15895;SDS011;33591;52.282;8.036;2022-07-23T01:01:38;10.55;;;9.55;;
15895;SDS011;33591;52.282;8.036;2022-07-23T01:02:39;13.63;;;10.73;;
15895;SDS011;33591;52.282;8.036;2022-07-23T01:03:40;13.35;;;11.45;;
15895;SDS011;33591;52.282;8.036;2022-07-23T01:04:40;12.02;;;10.05;;
15895;SDS011;33591;52.282;8.036;2022-07-23T01:05:40;12.05;;;10.80;;
15895;SDS011;33591;52.282;8.036;2022-07-23T01:06:41;11.85;;;10.70;;
15895;SDS011;33591;52.282;8.036;2022-07-23T01:07:42;12.23;;;10.45;;
15895;SDS011;33591;52.282;8.036;2022-07-23T01:08:43;11.40;;;9.50;;
15895;SDS011;33591;52.282;8.036;2022-07-23T01:09:44;11.73;;;9.45;;
15895;SDS011;33591;52.282;8.036;2022-07-23T01:10:44;13.13;;;11.27;;
15895;SDS011;33591;52.282;8.036;2022-07-23T01:11:44;13.07;;;10.50;;
15895;SDS011;33591;52.282;8.036;2022-07-23T01:12:45;15.68;;;11.27;;
15895;SDS011;33591;52.282;8.036;2022-07-23T01:13:45;13.38;;;11.30;;
15895;SDS011;33591;52.282;8.036;2022-07-23T01:14:53;11.73;;;10.43;;
15895;SDS011;33591;52.282;8.036;2022-07-23T01:15:54;11.10;;;9.98;;
15895;SDS011;33591;52.282;8.036;2022-07-23T01:16:54;14.45;;;10.68;;
15895;SDS011;33591;52.282;8.036;2022-07-23T01:17:54;11.57;;;10.40;;
15895;SDS011;33591;52.282;8.036;2022-07-23T01:18:55;11.98;;;10.85;;
15895;SDS011;33591;52.282;8.036;2022-07-23T01:19:55;12.05;;;10.60;;
15895;SDS011;33591;52.282;8.036;2022-07-23T01:20:56;13.10;;;11.80;;
15895;SDS011;33591;52.282;8.036;2022-07-23T01:21:57;14.93;;;12.38;;
15895;SDS011;33591;52.282;8.036;2022-07-23T01:22:57;10.65;;;9.63;;
15895;SDS011;33591;52.282;8.036;2022-07-23T01:23:58;12.48;;;10.45;;
15895;SDS011;33591;52.282;8.036;2022-07-23T01:24:58;13.52;;;10.15;;
15895;SDS011;33591;52.282;8.036;2022-07-23T01:26:01;13.63;;;10.35;;
15895;SDS011;33591;52.282;8.036;2022-07-23T01:27:02;10.70;;;9.75;;
15895;SDS011;33591;52.282;8.036;2022-07-23T01:28:03;11.63;;;10.30;;
15895;SDS011;33591;52.282;8.036;2022-07-23T01:29:04;11.85;;;10.65;;
15895;SDS011;33591;52.282;8.036;2022-07-23T01:30:05;13.93;;;9.73;;
15895;SDS011;33591;52.282;8.036;2022-07-23T01:31:06;12.00;;;10.38;;
15895;SDS011;33591;52.282;8.036;2022-07-23T01:32:09;11.52;;;10.38;;
15895;SDS011;33591;52.282;8.036;2022-07-23T01:33:09;15.00;;;11.25;;
15895;SDS011;33591;52.282;8.036;2022-07-23T01:34:10;12.18;;;10.85;;
15895;SDS011;33591;52.282;8.036;2022-07-23T01:35:10;12.98;;;11.32;;
15895;SDS011;33591;52.282;8.036;2022-07-23T01:36:12;12.85;;;11.23;;
15895;SDS011;33591;52.282;8.036;2022-07-23T01:37:12;11.88;;;10.77;;
15895;SDS011;33591;52.282;8.036;2022-07-23T01:38:12;13.73;;;12.30;;
15895;SDS011;33591;52.282;8.036;2022-07-23T01:39:14;12.93;;;11.40;;
15895;SDS011;33591;52.282;8.036;2022-07-23T01:40:14;14.68;;;12.25;;
15895;SDS011;33591;52.282;8.036;2022-07-23T01:41:15;14.13;;;12.18;;
15895;SDS011;33591;52.282;8.036;2022-07-23T01:42:16;13.57;;;12.30;;
15895;SDS011;33591;52.282;8.036;2022-07-23T01:43:16;13.02;;;11.65;;
15895;SDS011;33591;52.282;8.036;2022-07-23T01:44:17;16.58;;;13.07;;
15895;SDS011;33591;52.282;8.036;2022-07-23T01:45:17;14.65;;;13.15;;
15895;SDS011;33591;52.282;8.036;2022-07-23T01:46:22;16.30;;;12.48;;
15895;SDS011;33591;52.282;8.036;2022-07-23T01:47:23;14.50;;;13.07;;
15895;SDS011;33591;52.282;8.036;2022-07-23T01:48:26;15.63;;;14.10;;
15895;SDS011;33591;52.282;8.036;2022-07-23T01:50:02;14.85;;;12.65;;
15895;SDS011;33591;52.282;8.036;2022-07-23T01:51:18;15.27;;;12.73;;
15895;SDS011;33591;52.282;8.036;2022-07-23T01:52:26;13.00;;;11.77;;
15895;SDS011;33591;52.282;8.036;2022-07-23T01:53:27;13.90;;;11.10;;
15895;SDS011;33591;52.282;8.036;2022-07-23T01:54:28;18.05;;;12.38;;
15895;SDS011;33591;52.282;8.036;2022-07-23T01:55:28;13.10;;;11.73;;
15895;SDS011;33591;52.282;8.036;2022-07-23T01:56:28;13.10;;;10.77;;
15895;SDS011;33591;52.282;8.036;2022-07-23T01:57:29;11.43;;;10.30;;
15895;SDS011;33591;52.282;8.036;2022-07-23T01:58:29;12.02;;;10.88;;
15895;SDS011;33591;52.282;8.036;2022-07-23T01:59:31;13.07;;;10.82;;
15895;SDS011;33591;52.282;8.036;2022-07-23T02:00:32;13.07;;;10.98;;
15895;SDS011;33591;52.282;8.036;2022-07-23T02:01:32;12.10;;;10.32;;
15895;SDS011;33591;52.282;8.036;2022-07-23T02:02:33;11.27;;;10.20;;
15895;SDS011;33591;52.282;8.036;2022-07-23T02:03:33;11.60;;;10.43;;
15895;SDS011;33591;52.282;8.036;2022-07-23T02:04:33;13.05;;;11.75;;
15895;SDS011;33591;52.282;8.036;2022-07-23T02:05:36;11.82;;;10.63;;
15895;SDS011;33591;52.282;8.036;2022-07-23T02:06:37;11.10;;;9.90;;
15895;SDS011;33591;52.282;8.036;2022-07-23T02:07:38;12.65;;;9.82;;
15895;SDS011;33591;52.282;8.036;2022-07-23T02:08:38;12.48;;;11.23;;
15895;SDS011;33591;52.282;8.036;2022-07-23T02:09:38;11.25;;;10.15;;
15895;SDS011;33591;52.282;8.036;2022-07-23T02:10:39;13.30;;;10.45;;
15895;SDS011;33591;52.282;8.036;2022-07-23T02:11:39;11.52;;;10.27;;
15895;SDS011;33591;52.282;8.036;2022-07-23T02:12:40;11.13;;;10.13;;
15895;SDS011;33591;52.282;8.036;2022-07-23T02:13:43;11.25;;;9.85;;
15895;SDS011;33591;52.282;8.036;2022-07-23T02:14:43;11.32;;;9.73;;
15895;SDS011;33591;52.282;8.036;2022-07-23T02:15:44;10.98;;;9.88;;
15895;SDS011;33591;52.282;8.036;2022-07-23T02:16:44;11.25;;;9.77;;
15895;SDS011;33591;52.282;8.036;2022-07-23T02:17:45;10.57;;;9.57;;
15895;SDS011;33591;52.282;8.036;2022-07-23T02:18:45;10.98;;;9.80;;
15895;SDS011;33591;52.282;8.036;2022-07-23T02:19:46;11.15;;;10.07;;
15895;SDS011;33591;52.282;8.036;2022-07-23T02:20:47;10.60;;;9.52;;
15895;SDS011;33591;52.282;8.036;2022-07-23T02:21:47;11.57;;;10.48;;
15895;SDS011;33591;52.282;8.036;2022-07-23T02:22:48;12.05;;;9.48;;
15895;SDS011;33591;52.282;8.036;2022-07-23T02:23:48;10.75;;;9.70;;
15895;SDS011;33591;52.282;8.036;2022-07-23T02:24:49;10.65;;;9.63;;
15895;SDS011;33591;52.282;8.036;2022-07-23T02:25:49;11.32;;;10.23;;
15895;SDS011;33591;52.282;8.036;2022-07-23T02:26:50;14.15;;;9.80;;
15895;SDS011;33591;52.282;8.036;2022-07-23T02:27:50;12.52;;;10.05;;
15895;SDS011;33591;52.282;8.036;2022-07-23T02:28:50;11.63;;;10.43;;
15895;SDS011;33591;52.282;8.036;2022-07-23T02:29:52;11.15;;;10.05;;
15895;SDS011;33591;52.282;8.036;2022-07-23T02:30:53;10.60;;;9.60;;
15895;SDS011;33591;52.282;8.036;2022-07-23T02:31:53;11.13;;;9.65;;
15895;SDS011;33591;52.282;8.036;2022-07-23T02:32:54;11.02;;;9.88;;
15895;SDS011;33591;52.282;8.036;2022-07-23T02:33:54;12.38;;;10.63;;
15895;SDS011;33591;52.282;8.036;2022-07-23T02:34:55;11.65;;;9.77;;
15895;SDS011;33591;52.282;8.036;2022-07-23T02:35:56;10.40;;;9.27;;
15895;SDS011;33591;52.282;8.036;2022-07-23T02:36:56;10.50;;;9.50;;
15895;SDS011;33591;52.282;8.036;2022-07-23T02:37:57;10.77;;;9.63;;
15895;SDS011;33591;52.282;8.036;2022-07-23T02:38:58;11.32;;;9.98;;
15895;SDS011;33591;52.282;8.036;2022-07-23T02:39:59;11.10;;;9.95;;
15895;SDS011;33591;52.282;8.036;2022-07-23T02:41:00;11.85;;;10.35;;
15895;SDS011;33591;52.282;8.036;2022-07-23T02:42:01;14.65;;;11.10;;
15895;SDS011;33591;52.282;8.036;2022-07-23T02:43:02;13.55;;;11.07;;
15895;SDS011;33591;52.282;8.036;2022-07-23T02:44:03;16.17;;;10.75;;
15895;SDS011;33591;52.282;8.036;2022-07-23T02:45:03;12.18;;;10.90;;
15895;SDS011;33591;52.282;8.036;2022-07-23T02:46:04;17.77;;;10.63;;
15895;SDS011;33591;52.282;8.036;2022-07-23T02:47:05;12.48;;;10.50;;
15895;SDS011;33591;52.282;8.036;2022-07-23T02:48:06;11.05;;;9.98;;
15895;SDS011;33591;52.282;8.036;2022-07-23T02:49:07;12.80;;;11.05;;
15895;SDS011;33591;52.282;8.036;2022-07-23T02:50:07;11.95;;;10.75;;
15895;SDS011;33591;52.282;8.036;2022-07-23T02:51:08;13.85;;;10.75;;
15895;SDS011;33591;52.282;8.036;2022-07-23T02:52:15;14.48;;;11.10;;
15895;SDS011;33591;52.282;8.036;2022-07-23T02:53:16;14.40;;;10.15;;
15895;SDS011;33591;52.282;8.036;2022-07-23T02:54:17;11.77;;;9.93;;
15895;SDS011;33591;52.282;8.036;2022-07-23T02:55:17;10.43;;;9.52;;
15895;SDS011;33591;52.282;8.036;2022-07-23T02:56:17;11.07;;;10.07;;
15895;SDS011;33591;52.282;8.036;2022-07-23T02:57:18;11.02;;;9.90;;
15895;SDS011;33591;52.282;8.036;2022-07-23T02:58:18;12.68;;;10.07;;
15895;SDS011;33591;52.282;8.036;2022-07-23T02:59:18;10.68;;;9.60;;
15895;SDS011;33591;52.282;8.036;2022-07-23T03:00:21;11.13;;;9.95;;
15895;SDS011;33591;52.282;8.036;2022-07-23T03:01:21;11.00;;;9.80;;
15895;SDS011;33591;52.282;8.036;2022-07-23T03:02:21;11.00;;;9.98;;
15895;SDS011;33591;52.282;8.036;2022-07-23T03:03:22;10.07;;;9.07;;
15895;SDS011;33591;52.282;8.036;2022-07-23T03:04:22;11.80;;;9.82;;
15895;SDS011;33591;52.282;8.036;2022-07-23T03:05:22;12.75;;;9.75;;
15895;SDS011;33591;52.282;8.036;2022-07-23T03:06:23;10.52;;;9.57;;
15895;SDS011;33591;52.282;8.036;2022-07-23T03:07:24;11.30;;;9.52;;
15895;SDS011;33591;52.282;8.036;2022-07-23T03:08:27;10.57;;;9.60;;
15895;SDS011;33591;52.282;8.036;2022-07-23T03:09:28;10.90;;;9.88;;
15895;SDS011;33591;52.282;8.036;2022-07-23T03:10:28;10.60;;;9.60;;
15895;SDS011;33591;52.282;8.036;2022-07-23T03:11:28;10.82;;;9.73;;
15895;SDS011;33591;52.282;8.036;2022-07-23T03:12:29;10.35;;;9.38;;
15895;SDS011;33591;52.282;8.036;2022-07-23T03:13:29;11.02;;;9.93;;
15895;SDS011;33591;52.282;8.036;2022-07-23T03:14:29;11.20;;;10.15;;
15895;SDS011;33591;52.282;8.036;2022-07-23T03:15:30;11.43;;;10.23;;
15895;SDS011;33591;52.282;8.036;2022-07-23T03:16:30;12.05;;;9.77;;
15895;SDS011;33591;52.282;8.036;2022-07-23T03:17:31;10.90;;;9.57;;
15895;SDS011;33591;52.282;8.036;2022-07-23T03:18:31;10.65;;;9.55;;
15895;SDS011;33591;52.282;8.036;2022-07-23T03:19:32;13.05;;;9.55;;
15895;SDS011;33591;52.282;8.036;2022-07-23T03:20:32;11.20;;;10.07;;
15895;SDS011;33591;52.282;8.036;2022-07-23T03:21:32;15.50;;;9.70;;
15895;SDS011;33591;52.282;8.036;2022-07-23T03:22:34;10.30;;;9.27;;
15895;SDS011;33591;52.282;8.036;2022-07-23T03:23:34;10.52;;;9.38;;
15895;SDS011;33591;52.282;8.036;2022-07-23T03:24:34;11.88;;;9.40;;
15895;SDS011;33591;52.282;8.036;2022-07-23T03:25:55;10.85;;;9.68;;
15895;SDS011;33591;52.282;8.036;2022-07-23T03:26:56;9.93;;;8.98;;
15895;SDS011;33591;52.282;8.036;2022-07-23T03:27:56;13.05;;;9.88;;
15895;SDS011;33591;52.282;8.036;2022-07-23T03:28:56;10.52;;;9.32;;
15895;SDS011;33591;52.282;8.036;2022-07-23T03:29:58;10.05;;;9.13;;
15895;SDS011;33591;52.282;8.036;2022-07-23T03:30:59;11.15;;;9.98;;
15895;SDS011;33591;52.282;8.036;2022-07-23T03:31:59;12.13;;;9.68;;
15895;SDS011;33591;52.282;8.036;2022-07-23T03:32:59;10.63;;;9.23;;
15895;SDS011;33591;52.282;8.036;2022-07-23T03:34:00;10.15;;;9.15;;
15895;SDS011;33591;52.282;8.036;2022-07-23T03:35:00;12.13;;;9.68;;
15895;SDS011;33591;52.282;8.036;2022-07-23T03:36:01;10.45;;;9.35;;
15895;SDS011;33591;52.282;8.036;2022-07-23T03:37:05;12.90;;;11.10;;
15895;SDS011;33591;52.282;8.036;2022-07-23T03:38:05;13.20;;;11.95;;
15895;SDS011;33591;52.282;8.036;2022-07-23T03:39:05;13.05;;;11.85;;
15895;SDS011;33591;52.282;8.036;2022-07-23T03:40:06;12.30;;;10.70;;
15895;SDS011;33591;52.282;8.036;2022-07-23T03:41:06;10.98;;;9.82;;
15895;SDS011;33591;52.282;8.036;2022-07-23T03:42:07;14.57;;;10.75;;
15895;SDS011;33591;52.282;8.036;2022-07-23T03:43:07;11.52;;;10.35;;
15895;SDS011;33591;52.282;8.036;2022-07-23T03:44:08;13.38;;;10.63;;
15895;SDS011;33591;52.282;8.036;2022-07-23T03:45:08;14.43;;;9.85;;
15895;SDS011;33591;52.282;8.036;2022-07-23T03:46:09;11.25;;;10.20;;
15895;SDS011;33591;52.282;8.036;2022-07-23T03:47:10;12.07;;;10.48;;
15895;SDS011;33591;52.282;8.036;2022-07-23T03:48:10;13.05;;;9.98;;
15895;SDS011;33591;52.282;8.036;2022-07-23T03:49:11;12.07;;;9.93;;
15895;SDS011;33591;52.282;8.036;2022-07-23T03:50:11;13.30;;;10.80;;
15895;SDS011;33591;52.282;8.036;2022-07-23T03:51:12;12.07;;;10.20;;
15895;SDS011;33591;52.282;8.036;2022-07-23T03:52:12;10.75;;;9.65;;
15895;SDS011;33591;52.282;8.036;2022-07-23T03:53:12;11.18;;;9.98;;
15895;SDS011;33591;52.282;8.036;2022-07-23T03:54:13;14.15;;;10.80;;
15895;SDS011;33591;52.282;8.036;2022-07-23T03:55:13;12.02;;;10.68;;
15895;SDS011;33591;52.282;8.036;2022-07-23T03:56:14;12.40;;;11.30;;
15895;SDS011;33591;52.282;8.036;2022-07-23T03:57:14;12.48;;;10.98;;
15895;SDS011;33591;52.282;8.036;2022-07-23T03:58:15;13.32;;;11.38;;
15895;SDS011;33591;52.282;8.036;2022-07-23T03:59:17;13.60;;;11.57;;
15895;SDS011;33591;52.282;8.036;2022-07-23T04:00:18;12.80;;;11.48;;
15895;SDS011;33591;52.282;8.036;2022-07-23T04:01:23;14.98;;;11.43;;
15895;SDS011;33591;52.282;8.036;2022-07-23T04:02:23;15.15;;;12.52;;
15895;SDS011;33591;52.282;8.036;2022-07-23T04:03:24;14.40;;;12.68;;
15895;SDS011;33591;52.282;8.036;2022-07-23T04:04:25;13.15;;;11.25;;
15895;SDS011;33591;52.282;8.036;2022-07-23T04:05:25;13.77;;;12.35;;
15895;SDS011;33591;52.282;8.036;2022-07-23T04:06:32;14.43;;;12.77;;
15895;SDS011;33591;52.282;8.036;2022-07-23T04:07:33;14.85;;;12.63;;
15895;SDS011;33591;52.282;8.036;2022-07-23T04:08:34;14.50;;;11.98;;
15895;SDS011;33591;52.282;8.036;2022-07-23T04:09:35;15.18;;;13.68;;
15895;SDS011;33591;52.282;8.036;2022-07-23T04:10:35;15.80;;;12.70;;
15895;SDS011;33591;52.282;8.036;2022-07-23T04:11:36;15.70;;;12.90;;
15895;SDS011;33591;52.282;8.036;2022-07-23T04:12:37;14.60;;;12.63;;
15895;SDS011;33591;52.282;8.036;2022-07-23T04:13:38;17.02;;;12.93;;
15895;SDS011;33591;52.282;8.036;2022-07-23T04:14:38;14.70;;;12.38;;
15895;SDS011;33591;52.282;8.036;2022-07-23T04:15:39;14.57;;;13.07;;
15895;SDS011;33591;52.282;8.036;2022-07-23T04:16:39;13.80;;;12.30;;
15895;SDS011;33591;52.282;8.036;2022-07-23T04:17:40;16.75;;;12.05;;
15895;SDS011;33591;52.282;8.036;2022-07-23T04:18:40;13.57;;;12.32;;
15895;SDS011;33591;52.282;8.036;2022-07-23T04:19:47;13.25;;;11.80;;
15895;SDS011;33591;52.282;8.036;2022-07-23T04:20:51;13.73;;;12.38;;
15895;SDS011;33591;52.282;8.036;2022-07-23T04:21:51;16.30;;;13.00;;
15895;SDS011;33591;52.282;8.036;2022-07-23T04:22:52;18.65;;;13.25;;
15895;SDS011;33591;52.282;8.036;2022-07-23T04:23:52;15.70;;;12.45;;
15895;SDS011;33591;52.282;8.036;2022-07-23T04:24:54;15.02;;;12.98;;
15895;SDS011;33591;52.282;8.036;2022-07-23T04:25:54;17.40;;;12.52;;
15895;SDS011;33591;52.282;8.036;2022-07-23T04:26:54;17.05;;;13.10;;
15895;SDS011;33591;52.282;8.036;2022-07-23T04:27:55;14.07;;;12.68;;
15895;SDS011;33591;52.282;8.036;2022-07-23T04:28:55;15.63;;;12.65;;
15895;SDS011;33591;52.282;8.036;2022-07-23T04:29:55;15.63;;;13.10;;
15895;SDS011;33591;52.282;8.036;2022-07-23T04:30:58;13.55;;;12.15;;
15895;SDS011;33591;52.282;8.036;2022-07-23T04:31:59;14.02;;;12.55;;
15895;SDS011;33591;52.282;8.036;2022-07-23T04:32:59;13.98;;;12.35;;
15895;SDS011;33591;52.282;8.036;2022-07-23T04:34:01;17.10;;;13.35;;
15895;SDS011;33591;52.282;8.036;2022-07-23T04:35:02;14.88;;;13.13;;
15895;SDS011;33591;52.282;8.036;2022-07-23T04:36:02;13.90;;;12.60;;
15895;SDS011;33591;52.282;8.036;2022-07-23T04:37:03;14.20;;;12.52;;
15895;SDS011;33591;52.282;8.036;2022-07-23T04:38:05;13.85;;;12.45;;
15895;SDS011;33591;52.282;8.036;2022-07-23T04:39:06;14.00;;;12.20;;
15895;SDS011;33591;52.282;8.036;2022-07-23T04:40:07;14.70;;;12.52;;
15895;SDS011;33591;52.282;8.036;2022-07-23T04:41:07;15.45;;;13.13;;
15895;SDS011;33591;52.282;8.036;2022-07-23T04:42:07;12.77;;;11.63;;
15895;SDS011;33591;52.282;8.036;2022-07-23T04:43:08;14.77;;;12.80;;
15895;SDS011;33591;52.282;8.036;2022-07-23T04:44:14;13.77;;;12.43;;
15895;SDS011;33591;52.282;8.036;2022-07-23T04:45:15;13.60;;;12.30;;
15895;SDS011;33591;52.282;8.036;2022-07-23T04:46:17;14.80;;;13.07;;
15895;SDS011;33591;52.282;8.036;2022-07-23T04:47:21;13.20;;;12.00;;
15895;SDS011;33591;52.282;8.036;2022-07-23T04:48:22;14.02;;;12.63;;
15895;SDS011;33591;52.282;8.036;2022-07-23T04:49:28;14.25;;;11.95;;
15895;SDS011;33591;52.282;8.036;2022-07-23T04:50:29;17.00;;;13.23;;
15895;SDS011;33591;52.282;8.036;2022-07-23T04:51:32;14.75;;;13.10;;
15895;SDS011;33591;52.282;8.036;2022-07-23T04:52:32;15.07;;;13.30;;
15895;SDS011;33591;52.282;8.036;2022-07-23T04:53:33;16.02;;;13.98;;
15895;SDS011;33591;52.282;8.036;2022-07-23T04:54:34;18.02;;;13.15;;
15895;SDS011;33591;52.282;8.036;2022-07-23T04:55:36;15.15;;;12.38;;
15895;SDS011;33591;52.282;8.036;2022-07-23T04:56:36;14.52;;;13.02;;
15895;SDS011;33591;52.282;8.036;2022-07-23T04:57:37;14.25;;;12.85;;
15895;SDS011;33591;52.282;8.036;2022-07-23T04:58:37;13.70;;;12.02;;
15895;SDS011;33591;52.282;8.036;2022-07-23T04:59:38;14.30;;;12.90;;
15895;SDS011;33591;52.282;8.036;2022-07-23T05:00:39;13.98;;;12.63;;
15895;SDS011;33591;52.282;8.036;2022-07-23T05:01:39;14.00;;;12.43;;
15895;SDS011;33591;52.282;8.036;2022-07-23T05:02:41;14.32;;;12.73;;
15895;SDS011;33591;52.282;8.036;2022-07-23T05:03:42;14.23;;;12.60;;
15895;SDS011;33591;52.282;8.036;2022-07-23T05:04:43;13.48;;;12.10;;
15895;SDS011;33591;52.282;8.036;2022-07-23T05:05:43;14.30;;;12.70;;
15895;SDS011;33591;52.282;8.036;2022-07-23T05:06:48;14.35;;;12.95;;
15895;SDS011;33591;52.282;8.036;2022-07-23T05:07:48;15.68;;;12.23;;
15895;SDS011;33591;52.282;8.036;2022-07-23T05:08:50;14.75;;;13.27;;
15895;SDS011;33591;52.282;8.036;2022-07-23T05:09:50;14.85;;;13.25;;
15895;SDS011;33591;52.282;8.036;2022-07-23T05:10:51;13.60;;;12.15;;
15895;SDS011;33591;52.282;8.036;2022-07-23T05:11:52;12.60;;;11.07;;
15895;SDS011;33591;52.282;8.036;2022-07-23T05:12:54;12.90;;;11.20;;
15895;SDS011;33591;52.282;8.036;2022-07-23T05:13:54;13.48;;;12.13;;
15895;SDS011;33591;52.282;8.036;2022-07-23T05:14:55;13.63;;;12.20;;
15895;SDS011;33591;52.282;8.036;2022-07-23T05:15:55;13.60;;;12.20;;
15895;SDS011;33591;52.282;8.036;2022-07-23T05:16:57;14.30;;;12.90;;
15895;SDS011;33591;52.282;8.036;2022-07-23T05:17:59;13.57;;;12.23;;
15895;SDS011;33591;52.282;8.036;2022-07-23T05:19:01;15.18;;;12.40;;
15895;SDS011;33591;52.282;8.036;2022-07-23T05:20:01;15.52;;;12.13;;
15895;SDS011;33591;52.282;8.036;2022-07-23T05:21:03;15.32;;;12.95;;
15895;SDS011;33591;52.282;8.036;2022-07-23T05:22:03;14.50;;;12.35;;
15895;SDS011;33591;52.282;8.036;2022-07-23T05:23:03;15.80;;;12.32;;
15895;SDS011;33591;52.282;8.036;2022-07-23T05:24:04;13.60;;;12.30;;
15895;SDS011;33591;52.282;8.036;2022-07-23T05:25:05;13.90;;;12.52;;
15895;SDS011;33591;52.282;8.036;2022-07-23T05:26:06;13.18;;;11.77;;
15895;SDS011;33591;52.282;8.036;2022-07-23T05:27:06;14.07;;;12.63;;
15895;SDS011;33591;52.282;8.036;2022-07-23T05:28:07;14.10;;;12.77;;
15895;SDS011;33591;52.282;8.036;2022-07-23T05:29:08;13.68;;;11.95;;
15895;SDS011;33591;52.282;8.036;2022-07-23T05:30:09;14.07;;;12.10;;
15895;SDS011;33591;52.282;8.036;2022-07-23T05:31:11;14.35;;;12.80;;
15895;SDS011;33591;52.282;8.036;2022-07-23T05:32:11;12.55;;;11.25;;
15895;SDS011;33591;52.282;8.036;2022-07-23T05:33:15;12.20;;;10.98;;
15895;SDS011;33591;52.282;8.036;2022-07-23T05:34:15;13.75;;;10.95;;
15895;SDS011;33591;52.282;8.036;2022-07-23T05:35:17;13.70;;;12.35;;
15895;SDS011;33591;52.282;8.036;2022-07-23T05:36:25;14.98;;;12.48;;
15895;SDS011;33591;52.282;8.036;2022-07-23T05:37:29;13.50;;;12.27;;
15895;SDS011;33591;52.282;8.036;2022-07-23T05:38:29;14.00;;;12.60;;
15895;SDS011;33591;52.282;8.036;2022-07-23T05:39:32;14.73;;;13.05;;
15895;SDS011;33591;52.282;8.036;2022-07-23T05:40:33;14.98;;;13.38;;
15895;SDS011;33591;52.282;8.036;2022-07-23T05:41:33;13.90;;;12.48;;
15895;SDS011;33591;52.282;8.036;2022-07-23T05:42:36;13.25;;;12.05;;
15895;SDS011;33591;52.282;8.036;2022-07-23T05:43:37;13.82;;;12.45;;
15895;SDS011;33591;52.282;8.036;2022-07-23T05:44:43;13.98;;;12.68;;
15895;SDS011;33591;52.282;8.036;2022-07-23T05:45:43;14.93;;;12.48;;
15895;SDS011;33591;52.282;8.036;2022-07-23T05:46:44;13.65;;;12.32;;
15895;SDS011;33591;52.282;8.036;2022-07-23T05:47:49;16.02;;;11.57;;
15895;SDS011;33591;52.282;8.036;2022-07-23T05:48:58;13.48;;;12.07;;
15895;SDS011;33591;52.282;8.036;2022-07-23T05:50:17;13.75;;;12.02;;
15895;SDS011;33591;52.282;8.036;2022-07-23T05:51:26;12.98;;;11.65;;
15895;SDS011;33591;52.282;8.036;2022-07-23T05:52:27;14.18;;;12.15;;
15895;SDS011;33591;52.282;8.036;2022-07-23T05:53:47;13.63;;;12.30;;
15895;SDS011;33591;52.282;8.036;2022-07-23T05:54:52;13.25;;;12.07;;
15895;SDS011;33591;52.282;8.036;2022-07-23T05:55:52;12.60;;;11.45;;
15895;SDS011;33591;52.282;8.036;2022-07-23T05:56:53;17.10;;;12.25;;
15895;SDS011;33591;52.282;8.036;2022-07-23T05:57:53;14.68;;;11.13;;
15895;SDS011;33591;52.282;8.036;2022-07-23T05:58:54;12.05;;;10.80;;
15895;SDS011;33591;52.282;8.036;2022-07-23T05:59:54;14.10;;;11.82;;
15895;SDS011;33591;52.282;8.036;2022-07-23T06:00:54;12.40;;;11.18;;
15895;SDS011;33591;52.282;8.036;2022-07-23T06:01:55;12.60;;;10.68;;